sensor_id;sensor_type;location;lat;lon;timestamp;temperature;humidity
25628;DHT22;40915;50.826;4.356;2022-12-07T00:02:25;5.40;99.90
25628;DHT22;40915;50.826;4.356;2022-12-07T00:04:50;5.40;99.90
25628;DHT22;40915;50.826;4.356;2022-12-07T00:07:16;5.30;99.90
25628;DHT22;40915;50.826;4.356;2022-12-07T00:09:41;5.30;99.90
25628;DHT22;40915;50.826;4.356;2022-12-07T00:12:08;5.30;99.90
25628;DHT22;40915;50.826;4.356;2022-12-07T00:14:33;5.20;99.90
25628;DHT22;40915;50.826;4.356;2022-12-07T00:16:59;5.20;99.90
25628;DHT22;40915;50.826;4.356;2022-12-07T00:19:24;5.10;99.90
25628;DHT22;40915;50.826;4.356;2022-12-07T00:21:50;5.10;99.90
25628;DHT22;40915;50.826;4.356;2022-12-07T00:24:16;5.10;99.90
25628;DHT22;40915;50.826;4.356;2022-12-07T00:26:42;5.00;99.90
25628;DHT22;40915;50.826;4.356;2022-12-07T00:29:19;5.00;99.90
25628;DHT22;40915;50.826;4.356;2022-12-07T00:31:45;5.00;99.90
25628;DHT22;40915;50.826;4.356;2022-12-07T00:34:19;5.00;99.90
25628;DHT22;40915;50.826;4.356;2022-12-07T00:36:45;4.90;99.90
25628;DHT22;40915;50.826;4.356;2022-12-07T00:39:11;4.90;99.90
25628;DHT22;40915;50.826;4.356;2022-12-07T00:41:36;4.90;99.90
25628;DHT22;40915;50.826;4.356;2022-12-07T00:44:02;4.90;99.90
25628;DHT22;40915;50.826;4.356;2022-12-07T00:46:28;4.80;99.90
25628;DHT22;40915;50.826;4.356;2022-12-07T00:48:54;4.80;99.90
25628;DHT22;40915;50.826;4.356;2022-12-07T00:51:22;4.80;99.90
25628;DHT22;40915;50.826;4.356;2022-12-07T00:53:48;4.70;99.90
25628;DHT22;40915;50.826;4.356;2022-12-07T00:56:22;4.70;99.90
25628;DHT22;40915;50.826;4.356;2022-12-07T00:58:56;4.70;99.90
25628;DHT22;40915;50.826;4.356;2022-12-07T01:01:22;4.70;99.90
25628;DHT22;40915;50.826;4.356;2022-12-07T01:03:47;4.70;99.90
25628;DHT22;40915;50.826;4.356;2022-12-07T01:06:17;4.70;99.90
25628;DHT22;40915;50.826;4.356;2022-12-07T01:08:43;4.70;99.90
25628;DHT22;40915;50.826;4.356;2022-12-07T01:11:12;4.70;99.90
25628;DHT22;40915;50.826;4.356;2022-12-07T01:13:38;4.70;99.90
25628;DHT22;40915;50.826;4.356;2022-12-07T01:16:05;4.60;99.90
25628;DHT22;40915;50.826;4.356;2022-12-07T01:18:34;4.60;99.90
25628;DHT22;40915;50.826;4.356;2022-12-07T01:21:18;4.60;99.90
25628;DHT22;40915;50.826;4.356;2022-12-07T01:23:46;4.50;99.90
25628;DHT22;40915;50.826;4.356;2022-12-07T01:26:13;4.50;99.90
25628;DHT22;40915;50.826;4.356;2022-12-07T01:28:39;4.50;99.90
25628;DHT22;40915;50.826;4.356;2022-12-07T01:31:08;4.50;99.90
25628;DHT22;40915;50.826;4.356;2022-12-07T01:33:36;4.50;99.90
25628;DHT22;40915;50.826;4.356;2022-12-07T01:38:32;4.50;99.90
25628;DHT22;40915;50.826;4.356;2022-12-07T01:41:00;4.50;99.90
25628;DHT22;40915;50.826;4.356;2022-12-07T01:43:28;4.50;99.90
25628;DHT22;40915;50.826;4.356;2022-12-07T01:45:54;4.40;99.90
25628;DHT22;40915;50.826;4.356;2022-12-07T01:48:26;4.50;99.90
25628;DHT22;40915;50.826;4.356;2022-12-07T01:50:53;4.50;99.90
25628;DHT22;40915;50.826;4.356;2022-12-07T01:53:24;4.50;99.90
25628;DHT22;40915;50.826;4.356;2022-12-07T01:55:52;4.50;99.90
25628;DHT22;40915;50.826;4.356;2022-12-07T01:58:18;4.60;99.90
25628;DHT22;40915;50.826;4.356;2022-12-07T02:00:45;4.50;99.90
25628;DHT22;40915;50.826;4.356;2022-12-07T02:03:15;4.60;99.90
25628;DHT22;40915;50.826;4.356;2022-12-07T02:05:42;4.60;99.90
25628;DHT22;40915;50.826;4.356;2022-12-07T02:08:09;4.60;99.90
25628;DHT22;40915;50.826;4.356;2022-12-07T02:10:35;4.60;99.90
25628;DHT22;40915;50.826;4.356;2022-12-07T02:13:14;4.60;99.90
25628;DHT22;40915;50.826;4.356;2022-12-07T02:30:00;4.80;99.90
25628;DHT22;40915;50.826;4.356;2022-12-07T02:35:11;4.90;99.90
25628;DHT22;40915;50.826;4.356;2022-12-07T02:43:09;4.90;99.90
25628;DHT22;40915;50.826;4.356;2022-12-07T02:45:39;5.00;99.90
25628;DHT22;40915;50.826;4.356;2022-12-07T02:48:06;5.00;99.90
25628;DHT22;40915;50.826;4.356;2022-12-07T02:50:32;5.00;99.90
25628;DHT22;40915;50.826;4.356;2022-12-07T02:52:58;4.90;99.90
25628;DHT22;40915;50.826;4.356;2022-12-07T02:55:34;4.90;99.90
25628;DHT22;40915;50.826;4.356;2022-12-07T02:58:20;4.90;99.90
25628;DHT22;40915;50.826;4.356;2022-12-07T03:01:02;4.90;99.90
25628;DHT22;40915;50.826;4.356;2022-12-07T03:03:30;4.90;99.90
25628;DHT22;40915;50.826;4.356;2022-12-07T03:06:20;4.80;99.90
25628;DHT22;40915;50.826;4.356;2022-12-07T03:09:20;4.80;99.90
25628;DHT22;40915;50.826;4.356;2022-12-07T03:11:56;4.80;99.90
25628;DHT22;40915;50.826;4.356;2022-12-07T03:14:31;4.70;99.90
25628;DHT22;40915;50.826;4.356;2022-12-07T03:17:16;4.70;99.90
25628;DHT22;40915;50.826;4.356;2022-12-07T03:19:45;4.60;99.90
25628;DHT22;40915;50.826;4.356;2022-12-07T03:22:13;4.60;99.90
25628;DHT22;40915;50.826;4.356;2022-12-07T03:24:46;4.50;99.90
25628;DHT22;40915;50.826;4.356;2022-12-07T03:29:46;4.50;99.90
25628;DHT22;40915;50.826;4.356;2022-12-07T03:32:22;4.60;99.90
25628;DHT22;40915;50.826;4.356;2022-12-07T03:35:03;4.60;99.90
25628;DHT22;40915;50.826;4.356;2022-12-07T03:37:36;4.60;99.90
25628;DHT22;40915;50.826;4.356;2022-12-07T03:42:44;4.60;99.90
25628;DHT22;40915;50.826;4.356;2022-12-07T03:45:10;4.60;99.90
25628;DHT22;40915;50.826;4.356;2022-12-07T03:50:40;4.70;99.90
25628;DHT22;40915;50.826;4.356;2022-12-07T03:53:44;4.70;99.90
25628;DHT22;40915;50.826;4.356;2022-12-07T03:56:12;4.70;99.90
25628;DHT22;40915;50.826;4.356;2022-12-07T03:58:39;4.60;99.90
25628;DHT22;40915;50.826;4.356;2022-12-07T04:01:06;4.60;99.90
25628;DHT22;40915;50.826;4.356;2022-12-07T04:03:31;4.50;99.90
25628;DHT22;40915;50.826;4.356;2022-12-07T04:05:57;4.50;99.90
25628;DHT22;40915;50.826;4.356;2022-12-07T04:08:24;4.50;99.90
25628;DHT22;40915;50.826;4.356;2022-12-07T04:10:49;4.40;99.90
25628;DHT22;40915;50.826;4.356;2022-12-07T04:13:15;4.40;99.90
25628;DHT22;40915;50.826;4.356;2022-12-07T04:15:40;4.30;99.90
25628;DHT22;40915;50.826;4.356;2022-12-07T04:18:06;4.30;99.90
25628;DHT22;40915;50.826;4.356;2022-12-07T04:20:31;4.30;99.90
25628;DHT22;40915;50.826;4.356;2022-12-07T04:22:57;4.30;99.90
25628;DHT22;40915;50.826;4.356;2022-12-07T04:25:23;4.20;99.90
25628;DHT22;40915;50.826;4.356;2022-12-07T04:27:48;4.20;99.90
25628;DHT22;40915;50.826;4.356;2022-12-07T04:30:14;4.20;99.90
25628;DHT22;40915;50.826;4.356;2022-12-07T04:32:39;4.20;99.90
25628;DHT22;40915;50.826;4.356;2022-12-07T04:35:05;4.20;99.90
25628;DHT22;40915;50.826;4.356;2022-12-07T04:37:31;4.10;99.90
25628;DHT22;40915;50.826;4.356;2022-12-07T04:39:56;4.20;99.90
25628;DHT22;40915;50.826;4.356;2022-12-07T04:42:22;4.20;99.90
25628;DHT22;40915;50.826;4.356;2022-12-07T04:44:48;4.20;99.90
25628;DHT22;40915;50.826;4.356;2022-12-07T04:47:13;4.30;99.90
25628;DHT22;40915;50.826;4.356;2022-12-07T04:49:39;4.30;99.90
25628;DHT22;40915;50.826;4.356;2022-12-07T04:52:04;4.30;99.90
25628;DHT22;40915;50.826;4.356;2022-12-07T04:54:30;4.30;99.90
25628;DHT22;40915;50.826;4.356;2022-12-07T04:56:55;4.40;99.90
25628;DHT22;40915;50.826;4.356;2022-12-07T04:59:21;4.50;99.90
25628;DHT22;40915;50.826;4.356;2022-12-07T05:01:46;4.50;99.90
25628;DHT22;40915;50.826;4.356;2022-12-07T05:04:12;4.50;99.90
25628;DHT22;40915;50.826;4.356;2022-12-07T05:06:38;4.50;99.90
25628;DHT22;40915;50.826;4.356;2022-12-07T05:09:03;4.50;99.90
25628;DHT22;40915;50.826;4.356;2022-12-07T05:11:29;4.50;99.90
25628;DHT22;40915;50.826;4.356;2022-12-07T05:14:06;4.40;99.90
25628;DHT22;40915;50.826;4.356;2022-12-07T05:16:32;4.40;99.90
25628;DHT22;40915;50.826;4.356;2022-12-07T05:18:58;4.30;99.90
25628;DHT22;40915;50.826;4.356;2022-12-07T05:21:24;4.30;99.90
25628;DHT22;40915;50.826;4.356;2022-12-07T05:23:49;4.30;99.90
25628;DHT22;40915;50.826;4.356;2022-12-07T05:26:15;4.30;99.90
25628;DHT22;40915;50.826;4.356;2022-12-07T05:28:41;4.20;99.90
25628;DHT22;40915;50.826;4.356;2022-12-07T05:31:07;4.20;99.90
25628;DHT22;40915;50.826;4.356;2022-12-07T05:33:32;4.30;99.90
25628;DHT22;40915;50.826;4.356;2022-12-07T05:35:58;4.30;99.90
25628;DHT22;40915;50.826;4.356;2022-12-07T05:38:23;4.30;99.90
25628;DHT22;40915;50.826;4.356;2022-12-07T05:40:50;4.40;99.90
25628;DHT22;40915;50.826;4.356;2022-12-07T05:43:16;4.40;99.90
25628;DHT22;40915;50.826;4.356;2022-12-07T05:45:41;4.40;99.90
25628;DHT22;40915;50.826;4.356;2022-12-07T05:48:07;4.50;99.90
25628;DHT22;40915;50.826;4.356;2022-12-07T05:50:32;4.50;99.90
25628;DHT22;40915;50.826;4.356;2022-12-07T05:52:58;4.50;99.90
25628;DHT22;40915;50.826;4.356;2022-12-07T05:55:23;4.50;99.90
25628;DHT22;40915;50.826;4.356;2022-12-07T05:57:49;4.50;99.90
25628;DHT22;40915;50.826;4.356;2022-12-07T06:00:33;4.40;99.90
25628;DHT22;40915;50.826;4.356;2022-12-07T06:02:59;4.50;99.90
25628;DHT22;40915;50.826;4.356;2022-12-07T06:05:24;4.40;99.90
25628;DHT22;40915;50.826;4.356;2022-12-07T06:07:50;4.50;99.90
25628;DHT22;40915;50.826;4.356;2022-12-07T06:10:16;4.50;99.90
25628;DHT22;40915;50.826;4.356;2022-12-07T06:12:41;4.50;99.90
25628;DHT22;40915;50.826;4.356;2022-12-07T06:15:09;4.50;99.90
25628;DHT22;40915;50.826;4.356;2022-12-07T06:17:36;4.50;99.90
25628;DHT22;40915;50.826;4.356;2022-12-07T06:20:02;4.50;99.90
25628;DHT22;40915;50.826;4.356;2022-12-07T06:22:28;4.50;99.90
25628;DHT22;40915;50.826;4.356;2022-12-07T06:24:53;4.40;99.90
25628;DHT22;40915;50.826;4.356;2022-12-07T06:27:19;4.40;99.90
25628;DHT22;40915;50.826;4.356;2022-12-07T06:29:44;4.40;99.90
25628;DHT22;40915;50.826;4.356;2022-12-07T06:32:10;4.40;99.90
25628;DHT22;40915;50.826;4.356;2022-12-07T06:34:37;4.40;99.90
25628;DHT22;40915;50.826;4.356;2022-12-07T06:37:03;4.40;99.90
25628;DHT22;40915;50.826;4.356;2022-12-07T06:39:29;4.40;99.90
25628;DHT22;40915;50.826;4.356;2022-12-07T06:41:58;4.50;99.90
25628;DHT22;40915;50.826;4.356;2022-12-07T06:44:25;4.50;99.90
25628;DHT22;40915;50.826;4.356;2022-12-07T06:46:51;4.50;99.90
25628;DHT22;40915;50.826;4.356;2022-12-07T06:49:17;4.50;99.90
25628;DHT22;40915;50.826;4.356;2022-12-07T06:51:43;4.60;99.90
25628;DHT22;40915;50.826;4.356;2022-12-07T06:54:13;4.50;99.90
25628;DHT22;40915;50.826;4.356;2022-12-07T06:56:39;4.60;99.90
25628;DHT22;40915;50.826;4.356;2022-12-07T06:59:06;4.60;99.90
25628;DHT22;40915;50.826;4.356;2022-12-07T07:01:34;4.60;99.90
25628;DHT22;40915;50.826;4.356;2022-12-07T07:04:00;4.60;99.90
25628;DHT22;40915;50.826;4.356;2022-12-07T07:06:26;4.60;99.90
25628;DHT22;40915;50.826;4.356;2022-12-07T07:08:52;4.60;99.90
25628;DHT22;40915;50.826;4.356;2022-12-07T07:11:17;4.60;99.90
25628;DHT22;40915;50.826;4.356;2022-12-07T07:13:44;4.60;99.90
25628;DHT22;40915;50.826;4.356;2022-12-07T07:16:10;4.60;99.90
25628;DHT22;40915;50.826;4.356;2022-12-07T07:18:36;4.50;99.90
25628;DHT22;40915;50.826;4.356;2022-12-07T07:21:02;4.60;99.90
25628;DHT22;40915;50.826;4.356;2022-12-07T07:23:28;4.60;99.90
25628;DHT22;40915;50.826;4.356;2022-12-07T07:25:54;4.60;99.90
25628;DHT22;40915;50.826;4.356;2022-12-07T07:28:19;4.60;99.90
25628;DHT22;40915;50.826;4.356;2022-12-07T07:30:45;4.70;99.90
25628;DHT22;40915;50.826;4.356;2022-12-07T07:33:11;4.70;99.90
25628;DHT22;40915;50.826;4.356;2022-12-07T07:35:37;4.70;99.90
25628;DHT22;40915;50.826;4.356;2022-12-07T07:38:03;4.70;99.90
25628;DHT22;40915;50.826;4.356;2022-12-07T07:40:29;4.70;99.90
25628;DHT22;40915;50.826;4.356;2022-12-07T07:42:55;4.70;99.90
25628;DHT22;40915;50.826;4.356;2022-12-07T07:45:22;4.70;99.90
25628;DHT22;40915;50.826;4.356;2022-12-07T07:47:48;4.80;99.90
25628;DHT22;40915;50.826;4.356;2022-12-07T07:50:14;4.80;99.90
25628;DHT22;40915;50.826;4.356;2022-12-07T07:52:40;4.80;99.90
25628;DHT22;40915;50.826;4.356;2022-12-07T07:55:06;4.90;99.90
25628;DHT22;40915;50.826;4.356;2022-12-07T07:57:36;4.90;99.90
25628;DHT22;40915;50.826;4.356;2022-12-07T08:00:12;4.90;99.90
25628;DHT22;40915;50.826;4.356;2022-12-07T08:02:39;4.90;99.90
25628;DHT22;40915;50.826;4.356;2022-12-07T08:05:05;4.90;99.90
25628;DHT22;40915;50.826;4.356;2022-12-07T08:07:31;4.90;99.90
25628;DHT22;40915;50.826;4.356;2022-12-07T08:09:56;4.80;99.90
25628;DHT22;40915;50.826;4.356;2022-12-07T08:12:22;4.80;99.90
25628;DHT22;40915;50.826;4.356;2022-12-07T08:14:47;4.80;99.90
25628;DHT22;40915;50.826;4.356;2022-12-07T08:17:13;4.80;99.90
25628;DHT22;40915;50.826;4.356;2022-12-07T08:19:38;4.80;99.90
25628;DHT22;40915;50.826;4.356;2022-12-07T08:22:04;4.80;99.90
25628;DHT22;40915;50.826;4.356;2022-12-07T08:24:33;4.80;99.90
25628;DHT22;40915;50.826;4.356;2022-12-07T08:26:58;4.70;99.90
25628;DHT22;40915;50.826;4.356;2022-12-07T08:29:24;4.80;99.90
25628;DHT22;40915;50.826;4.356;2022-12-07T08:31:50;4.80;99.90
25628;DHT22;40915;50.826;4.356;2022-12-07T08:34:16;4.80;99.90
25628;DHT22;40915;50.826;4.356;2022-12-07T08:36:42;4.80;99.90
25628;DHT22;40915;50.826;4.356;2022-12-07T08:39:08;4.80;99.90
25628;DHT22;40915;50.826;4.356;2022-12-07T08:41:34;4.80;99.90
25628;DHT22;40915;50.826;4.356;2022-12-07T08:43:59;4.80;99.90
25628;DHT22;40915;50.826;4.356;2022-12-07T08:46:53;4.80;99.90
25628;DHT22;40915;50.826;4.356;2022-12-07T08:49:27;4.80;99.90
25628;DHT22;40915;50.826;4.356;2022-12-07T08:51:56;4.90;99.90
25628;DHT22;40915;50.826;4.356;2022-12-07T08:54:22;4.90;99.90
25628;DHT22;40915;50.826;4.356;2022-12-07T08:56:48;5.00;99.90
25628;DHT22;40915;50.826;4.356;2022-12-07T08:59:15;5.10;99.90
25628;DHT22;40915;50.826;4.356;2022-12-07T09:01:42;5.20;99.90
25628;DHT22;40915;50.826;4.356;2022-12-07T09:04:08;5.30;99.90
25628;DHT22;40915;50.826;4.356;2022-12-07T09:06:34;5.40;99.90
25628;DHT22;40915;50.826;4.356;2022-12-07T09:09:01;5.50;99.90
25628;DHT22;40915;50.826;4.356;2022-12-07T09:11:27;5.60;99.90
25628;DHT22;40915;50.826;4.356;2022-12-07T09:13:53;5.70;99.90
25628;DHT22;40915;50.826;4.356;2022-12-07T09:16:18;5.70;99.90
25628;DHT22;40915;50.826;4.356;2022-12-07T09:18:44;5.80;99.90
25628;DHT22;40915;50.826;4.356;2022-12-07T09:21:09;5.80;99.90
25628;DHT22;40915;50.826;4.356;2022-12-07T09:23:35;5.90;99.90
25628;DHT22;40915;50.826;4.356;2022-12-07T09:26:01;5.80;99.90
25628;DHT22;40915;50.826;4.356;2022-12-07T09:28:28;5.90;99.90
25628;DHT22;40915;50.826;4.356;2022-12-07T09:30:53;5.90;99.90
25628;DHT22;40915;50.826;4.356;2022-12-07T09:33:19;5.90;99.90
25628;DHT22;40915;50.826;4.356;2022-12-07T09:35:46;5.90;99.90
25628;DHT22;40915;50.826;4.356;2022-12-07T09:38:12;6.00;99.90
25628;DHT22;40915;50.826;4.356;2022-12-07T09:40:38;6.10;99.90
25628;DHT22;40915;50.826;4.356;2022-12-07T09:43:04;6.20;99.90
25628;DHT22;40915;50.826;4.356;2022-12-07T09:45:35;6.30;99.90
25628;DHT22;40915;50.826;4.356;2022-12-07T09:48:03;6.40;99.90
25628;DHT22;40915;50.826;4.356;2022-12-07T09:50:29;6.40;99.90
25628;DHT22;40915;50.826;4.356;2022-12-07T09:53:04;6.40;99.90
25628;DHT22;40915;50.826;4.356;2022-12-07T09:55:32;6.40;99.90
25628;DHT22;40915;50.826;4.356;2022-12-07T09:57:58;6.30;99.90
25628;DHT22;40915;50.826;4.356;2022-12-07T10:00:24;6.20;99.90
25628;DHT22;40915;50.826;4.356;2022-12-07T10:02:59;6.20;99.90
25628;DHT22;40915;50.826;4.356;2022-12-07T10:05:31;6.20;99.90
25628;DHT22;40915;50.826;4.356;2022-12-07T10:07:57;6.20;99.90
25628;DHT22;40915;50.826;4.356;2022-12-07T10:10:25;6.20;99.90
25628;DHT22;40915;50.826;4.356;2022-12-07T10:13:12;6.30;99.90
25628;DHT22;40915;50.826;4.356;2022-12-07T10:18:38;6.30;99.90
25628;DHT22;40915;50.826;4.356;2022-12-07T10:21:17;6.30;99.90
25628;DHT22;40915;50.826;4.356;2022-12-07T10:29:42;6.40;99.90
25628;DHT22;40915;50.826;4.356;2022-12-07T10:34:41;6.40;99.90
25628;DHT22;40915;50.826;4.356;2022-12-07T10:39:56;6.40;99.90
25628;DHT22;40915;50.826;4.356;2022-12-07T10:42:25;6.50;99.90
25628;DHT22;40915;50.826;4.356;2022-12-07T10:47:59;6.60;99.90
25628;DHT22;40915;50.826;4.356;2022-12-07T10:50:47;6.60;99.90
25628;DHT22;40915;50.826;4.356;2022-12-07T10:53:27;6.50;99.90
25628;DHT22;40915;50.826;4.356;2022-12-07T10:56:18;6.50;99.90
25628;DHT22;40915;50.826;4.356;2022-12-07T11:01:50;6.50;99.90
25628;DHT22;40915;50.826;4.356;2022-12-07T11:07:22;6.70;99.90
25628;DHT22;40915;50.826;4.356;2022-12-07T11:10:13;6.80;99.90
25628;DHT22;40915;50.826;4.356;2022-12-07T11:12:44;6.80;99.90
25628;DHT22;40915;50.826;4.356;2022-12-07T11:15:24;6.90;99.90
25628;DHT22;40915;50.826;4.356;2022-12-07T11:18:06;7.00;99.90
25628;DHT22;40915;50.826;4.356;2022-12-07T11:20:51;7.00;99.90
25628;DHT22;40915;50.826;4.356;2022-12-07T11:26:19;7.00;99.90
25628;DHT22;40915;50.826;4.356;2022-12-07T11:31:29;7.00;99.90
25628;DHT22;40915;50.826;4.356;2022-12-07T11:34:15;6.90;99.90
25628;DHT22;40915;50.826;4.356;2022-12-07T11:36:47;6.70;99.90
25628;DHT22;40915;50.826;4.356;2022-12-07T11:39:30;6.60;99.90
25628;DHT22;40915;50.826;4.356;2022-12-07T11:42:26;6.50;99.90
25628;DHT22;40915;50.826;4.356;2022-12-07T11:45:16;6.40;99.90
25628;DHT22;40915;50.826;4.356;2022-12-07T11:48:02;6.40;99.90
25628;DHT22;40915;50.826;4.356;2022-12-07T12:06:28;6.70;99.90
25628;DHT22;40915;50.826;4.356;2022-12-07T12:14:29;6.90;99.90
25628;DHT22;40915;50.826;4.356;2022-12-07T12:17:20;6.90;99.90
25628;DHT22;40915;50.826;4.356;2022-12-07T12:20:03;7.00;99.90
25628;DHT22;40915;50.826;4.356;2022-12-07T12:25:43;7.00;99.90
25628;DHT22;40915;50.826;4.356;2022-12-07T12:28:29;7.00;99.90
25628;DHT22;40915;50.826;4.356;2022-12-07T12:31:14;6.90;99.90
25628;DHT22;40915;50.826;4.356;2022-12-07T12:33:49;6.90;99.90
25628;DHT22;40915;50.826;4.356;2022-12-07T12:38:50;6.90;99.90
25628;DHT22;40915;50.826;4.356;2022-12-07T12:44:02;6.80;99.90
25628;DHT22;40915;50.826;4.356;2022-12-07T12:54:25;6.80;99.90
25628;DHT22;40915;50.826;4.356;2022-12-07T12:57:11;6.80;99.90
25628;DHT22;40915;50.826;4.356;2022-12-07T13:02:24;6.70;99.90
25628;DHT22;40915;50.826;4.356;2022-12-07T13:10:36;7.20;99.90
25628;DHT22;40915;50.826;4.356;2022-12-07T13:26:36;7.20;99.90
25628;DHT22;40915;50.826;4.356;2022-12-07T13:31:39;7.30;99.90
25628;DHT22;40915;50.826;4.356;2022-12-07T13:34:58;7.30;99.90
25628;DHT22;40915;50.826;4.356;2022-12-07T13:37:30;7.30;99.90
25628;DHT22;40915;50.826;4.356;2022-12-07T13:39:59;7.30;99.90
25628;DHT22;40915;50.826;4.356;2022-12-07T13:42:30;7.30;99.90
25628;DHT22;40915;50.826;4.356;2022-12-07T13:44:59;7.30;99.90
25628;DHT22;40915;50.826;4.356;2022-12-07T13:47:49;7.30;99.90
25628;DHT22;40915;50.826;4.356;2022-12-07T13:50:26;7.30;99.90
25628;DHT22;40915;50.826;4.356;2022-12-07T13:52:55;7.30;99.90
25628;DHT22;40915;50.826;4.356;2022-12-07T13:55:21;7.20;99.90
25628;DHT22;40915;50.826;4.356;2022-12-07T13:57:50;7.20;99.90
25628;DHT22;40915;50.826;4.356;2022-12-07T14:00:27;7.20;99.90
25628;DHT22;40915;50.826;4.356;2022-12-07T14:02:59;7.20;99.90
25628;DHT22;40915;50.826;4.356;2022-12-07T14:05:27;7.20;99.90
25628;DHT22;40915;50.826;4.356;2022-12-07T14:07:56;7.20;99.90
25628;DHT22;40915;50.826;4.356;2022-12-07T14:12:50;7.10;99.90
25628;DHT22;40915;50.826;4.356;2022-12-07T14:15:21;7.10;99.90
25628;DHT22;40915;50.826;4.356;2022-12-07T14:17:51;7.00;99.90
25628;DHT22;40915;50.826;4.356;2022-12-07T14:20:35;7.00;99.90
25628;DHT22;40915;50.826;4.356;2022-12-07T14:23:02;7.00;99.90
25628;DHT22;40915;50.826;4.356;2022-12-07T14:25:45;7.00;99.90
25628;DHT22;40915;50.826;4.356;2022-12-07T14:28:26;7.00;99.90
25628;DHT22;40915;50.826;4.356;2022-12-07T14:30:52;6.90;99.90
25628;DHT22;40915;50.826;4.356;2022-12-07T14:33:18;6.80;99.90
25628;DHT22;40915;50.826;4.356;2022-12-07T14:35:44;6.80;99.90
25628;DHT22;40915;50.826;4.356;2022-12-07T14:38:10;6.80;99.90
25628;DHT22;40915;50.826;4.356;2022-12-07T14:40:35;6.70;99.90
25628;DHT22;40915;50.826;4.356;2022-12-07T14:43:06;6.60;99.90
25628;DHT22;40915;50.826;4.356;2022-12-07T14:45:34;6.40;99.90
25628;DHT22;40915;50.826;4.356;2022-12-07T14:47:59;6.20;99.90
25628;DHT22;40915;50.826;4.356;2022-12-07T14:50:25;6.10;99.90
25628;DHT22;40915;50.826;4.356;2022-12-07T14:52:54;6.00;99.90
25628;DHT22;40915;50.826;4.356;2022-12-07T14:55:24;5.90;99.90
25628;DHT22;40915;50.826;4.356;2022-12-07T14:57:50;5.90;99.90
25628;DHT22;40915;50.826;4.356;2022-12-07T15:00:17;5.90;99.90
25628;DHT22;40915;50.826;4.356;2022-12-07T15:02:45;5.90;99.90
25628;DHT22;40915;50.826;4.356;2022-12-07T15:05:10;5.90;99.90
25628;DHT22;40915;50.826;4.356;2022-12-07T15:07:36;5.90;99.90
25628;DHT22;40915;50.826;4.356;2022-12-07T15:10:02;5.90;99.90
25628;DHT22;40915;50.826;4.356;2022-12-07T15:12:27;5.90;99.90
25628;DHT22;40915;50.826;4.356;2022-12-07T15:14:53;5.90;99.90
25628;DHT22;40915;50.826;4.356;2022-12-07T15:17:18;5.90;99.90
25628;DHT22;40915;50.826;4.356;2022-12-07T15:19:44;5.90;99.90
25628;DHT22;40915;50.826;4.356;2022-12-07T15:22:09;5.90;99.90
25628;DHT22;40915;50.826;4.356;2022-12-07T15:24:36;5.90;99.90
25628;DHT22;40915;50.826;4.356;2022-12-07T15:27:02;5.90;99.90
25628;DHT22;40915;50.826;4.356;2022-12-07T15:29:27;5.90;99.90
25628;DHT22;40915;50.826;4.356;2022-12-07T15:31:53;5.90;99.90
25628;DHT22;40915;50.826;4.356;2022-12-07T15:34:19;5.90;99.90
25628;DHT22;40915;50.826;4.356;2022-12-07T15:36:45;6.00;99.90
25628;DHT22;40915;50.826;4.356;2022-12-07T15:39:10;6.00;99.90
25628;DHT22;40915;50.826;4.356;2022-12-07T15:41:37;6.00;99.90
25628;DHT22;40915;50.826;4.356;2022-12-07T15:44:02;6.00;99.90
25628;DHT22;40915;50.826;4.356;2022-12-07T15:46:47;6.00;99.90
25628;DHT22;40915;50.826;4.356;2022-12-07T15:49:15;5.90;99.90
25628;DHT22;40915;50.826;4.356;2022-12-07T15:51:41;6.00;99.90
25628;DHT22;40915;50.826;4.356;2022-12-07T15:54:18;6.00;99.90
25628;DHT22;40915;50.826;4.356;2022-12-07T15:56:45;5.90;99.90
25628;DHT22;40915;50.826;4.356;2022-12-07T15:59:10;5.90;99.90
25628;DHT22;40915;50.826;4.356;2022-12-07T16:01:36;5.90;99.90
25628;DHT22;40915;50.826;4.356;2022-12-07T16:04:01;5.80;99.90
25628;DHT22;40915;50.826;4.356;2022-12-07T16:06:27;5.80;99.90
25628;DHT22;40915;50.826;4.356;2022-12-07T16:08:53;5.80;99.90
25628;DHT22;40915;50.826;4.356;2022-12-07T16:11:18;5.80;99.90
25628;DHT22;40915;50.826;4.356;2022-12-07T16:13:44;5.80;99.90
25628;DHT22;40915;50.826;4.356;2022-12-07T16:16:15;5.80;99.90
25628;DHT22;40915;50.826;4.356;2022-12-07T16:18:42;5.80;99.90
25628;DHT22;40915;50.826;4.356;2022-12-07T16:21:08;5.80;99.90
25628;DHT22;40915;50.826;4.356;2022-12-07T16:23:34;5.80;99.90
25628;DHT22;40915;50.826;4.356;2022-12-07T16:26:15;5.80;99.90
25628;DHT22;40915;50.826;4.356;2022-12-07T16:28:41;5.80;99.90
25628;DHT22;40915;50.826;4.356;2022-12-07T16:31:12;5.70;99.90
25628;DHT22;40915;50.826;4.356;2022-12-07T16:33:39;5.70;99.90
25628;DHT22;40915;50.826;4.356;2022-12-07T16:36:06;5.70;99.90
25628;DHT22;40915;50.826;4.356;2022-12-07T16:38:33;5.70;99.90
25628;DHT22;40915;50.826;4.356;2022-12-07T16:40:58;5.70;99.90
25628;DHT22;40915;50.826;4.356;2022-12-07T16:43:24;5.60;99.90
25628;DHT22;40915;50.826;4.356;2022-12-07T16:45:50;5.60;99.90
25628;DHT22;40915;50.826;4.356;2022-12-07T16:48:17;5.60;99.90
25628;DHT22;40915;50.826;4.356;2022-12-07T16:50:43;5.60;99.90
25628;DHT22;40915;50.826;4.356;2022-12-07T16:53:10;5.70;99.90
25628;DHT22;40915;50.826;4.356;2022-12-07T16:55:37;5.70;99.90
25628;DHT22;40915;50.826;4.356;2022-12-07T16:58:03;5.70;99.90
25628;DHT22;40915;50.826;4.356;2022-12-07T17:00:28;5.70;99.90
25628;DHT22;40915;50.826;4.356;2022-12-07T17:02:54;5.80;99.90
25628;DHT22;40915;50.826;4.356;2022-12-07T17:05:20;5.80;99.90
25628;DHT22;40915;50.826;4.356;2022-12-07T17:07:46;5.80;99.90
25628;DHT22;40915;50.826;4.356;2022-12-07T17:10:12;5.80;99.90
25628;DHT22;40915;50.826;4.356;2022-12-07T17:12:38;5.80;99.90
25628;DHT22;40915;50.826;4.356;2022-12-07T17:15:04;5.90;99.90
25628;DHT22;40915;50.826;4.356;2022-12-07T17:17:45;5.90;99.90
25628;DHT22;40915;50.826;4.356;2022-12-07T17:20:12;5.90;99.90
25628;DHT22;40915;50.826;4.356;2022-12-07T17:22:38;5.90;99.90
25628;DHT22;40915;50.826;4.356;2022-12-07T17:25:04;5.90;99.90
25628;DHT22;40915;50.826;4.356;2022-12-07T17:27:30;5.90;99.90
25628;DHT22;40915;50.826;4.356;2022-12-07T17:29:56;5.90;99.90
25628;DHT22;40915;50.826;4.356;2022-12-07T17:32:21;5.80;99.90
25628;DHT22;40915;50.826;4.356;2022-12-07T17:34:47;5.80;99.90
25628;DHT22;40915;50.826;4.356;2022-12-07T17:37:12;5.70;99.90
25628;DHT22;40915;50.826;4.356;2022-12-07T17:39:38;5.80;99.90
25628;DHT22;40915;50.826;4.356;2022-12-07T17:42:04;5.80;99.90
25628;DHT22;40915;50.826;4.356;2022-12-07T17:44:48;5.80;99.90
25628;DHT22;40915;50.826;4.356;2022-12-07T17:47:14;5.80;99.90
25628;DHT22;40915;50.826;4.356;2022-12-07T17:49:42;5.90;99.90
25628;DHT22;40915;50.826;4.356;2022-12-07T17:52:11;5.90;99.90
25628;DHT22;40915;50.826;4.356;2022-12-07T17:54:55;5.90;99.90
25628;DHT22;40915;50.826;4.356;2022-12-07T17:57:21;5.90;99.90
25628;DHT22;40915;50.826;4.356;2022-12-07T17:59:46;5.90;99.90
25628;DHT22;40915;50.826;4.356;2022-12-07T18:02:12;5.80;99.90
25628;DHT22;40915;50.826;4.356;2022-12-07T18:04:38;5.80;99.90